Time;durP1;ratioP1;P1;durP2;ratioP2;P2;SDS_P1;SDS_P2;PMS_P1;PMS_P2;Temp;Humidity;BMP_temperature;BMP_pressure;BME280_temperature;BME280_humidity;BME280_pressure;Samples;Min_cycle;Max_cycle;Signal;HPM_P1;HPM_P2
2022/02/26 00:00:46;;;;;;;35.47;15.53;;;2.30;99.90;;;;;;4175192;28;20274;-59
2022/02/26 00:02:47;;;;;;;34.50;15.50;;;2.30;99.90;;;;;;4173522;28;20274;-88
2022/02/26 00:04:48;;;;;;;30.60;13.57;;;2.40;99.90;;;;;;4167958;28;20306;-54
2022/02/26 00:06:50;;;;;;;30.30;14.17;;;2.40;99.90;;;;;;4158768;28;20325;-78
2022/02/26 00:08:51;;;;;;;33.90;15.27;;;2.40;99.90;;;;;;4158848;28;20275;-71
2022/02/26 00:10:52;;;;;;;32.33;14.53;;;2.40;99.90;;;;;;4159919;28;20325;-59
2022/02/26 00:12:54;;;;;;;26.57;13.30;;;2.40;99.90;;;;;;4159521;28;20274;-60
2022/02/26 00:14:55;;;;;;;29.80;13.00;;;2.50;99.90;;;;;;4160932;28;20278;-51
2022/02/26 00:16:56;;;;;;;26.90;13.20;;;2.50;99.90;;;;;;4160003;28;20255;-85
2022/02/26 00:18:57;;;;;;;23.43;12.07;;;2.50;99.90;;;;;;4163469;28;20312;-68
2022/02/26 00:20:58;;;;;;;26.13;12.37;;;2.60;99.90;;;;;;4160862;28;20271;-61
2022/02/26 00:23:00;;;;;;;28.20;12.70;;;2.60;99.90;;;;;;4161413;28;20270;-68
2022/02/26 00:25:01;;;;;;;26.93;12.83;;;2.60;99.90;;;;;;4167927;28;20335;-63
2022/02/26 00:27:02;;;;;;;27.47;12.80;;;2.60;99.90;;;;;;4177186;28;20265;-62
2022/02/26 00:29:04;;;;;;;28.70;12.70;;;2.60;99.90;;;;;;4178791;28;20270;-70
2022/02/26 00:31:05;;;;;;;23.00;11.80;;;2.60;99.90;;;;;;4170421;28;20356;-82
2022/02/26 00:33:06;;;;;;;23.33;12.30;;;2.60;99.90;;;;;;4162659;28;20275;-68
2022/02/26 00:35:07;;;;;;;22.73;10.67;;;2.60;99.90;;;;;;4161220;28;20689;-67
2022/02/26 00:37:08;;;;;;;23.37;11.50;;;2.60;99.90;;;;;;4162208;28;20301;-64
2022/02/26 00:39:09;;;;;;;30.13;12.23;;;2.70;99.90;;;;;;4157941;28;20270;-54
2022/02/26 00:41:11;;;;;;;26.43;11.37;;;2.70;99.90;;;;;;4157379;28;21151;-42
2022/02/26 00:43:12;;;;;;;24.40;11.80;;;2.70;99.90;;;;;;4157102;28;20320;-51
2022/02/26 00:45:13;;;;;;;22.13;11.23;;;2.70;99.90;;;;;;4157908;28;20380;-61
2022/02/26 00:47:14;;;;;;;23.83;12.80;;;2.70;99.90;;;;;;4169103;28;20277;-62
2022/02/26 00:51:36;;;;;;;30.90;13.00;;;2.60;99.90;;;;;;4174736;28;21127;-67
2022/02/26 00:53:37;;;;;;;26.80;13.07;;;2.60;99.90;;;;;;4172713;28;20041;-57
2022/02/26 00:55:38;;;;;;;31.77;14.43;;;2.50;99.90;;;;;;4174358;28;20666;-67
2022/02/26 00:57:40;;;;;;;29.53;13.63;;;2.50;99.90;;;;;;4171744;28;20274;-54
2022/02/26 00:59:41;;;;;;;30.33;13.40;;;2.40;99.90;;;;;;4174388;28;20321;-67
2022/02/26 01:01:42;;;;;;;29.60;14.23;;;2.40;99.90;;;;;;4171254;28;20319;-64
2022/02/26 01:03:44;;;;;;;35.80;14.67;;;2.40;99.90;;;;;;4174446;28;20262;-67
2022/02/26 01:05:45;;;;;;;26.70;14.13;;;2.30;99.90;;;;;;4174017;28;20359;-62
2022/02/26 01:07:47;;;;;;;32.47;14.17;;;2.30;99.90;;;;;;4175015;28;20270;-56
2022/02/26 01:09:48;;;;;;;28.37;13.77;;;2.30;99.90;;;;;;4163837;28;20332;-51
2022/02/26 01:11:49;;;;;;;27.00;13.17;;;2.30;99.90;;;;;;4158280;28;20329;-54
2022/02/26 01:13:50;;;;;;;27.23;12.47;;;2.30;99.90;;;;;;4156957;28;20313;-63
2022/02/26 01:15:51;;;;;;;27.10;12.40;;;2.20;99.90;;;;;;4157081;28;20279;-66
2022/02/26 01:17:53;;;;;;;25.13;12.30;;;2.20;99.90;;;;;;4157790;28;20304;-62
2022/02/26 01:19:54;;;;;;;23.00;11.40;;;2.10;99.90;;;;;;4160226;28;20271;-62
2022/02/26 01:21:55;;;;;;;28.93;12.60;;;2.10;99.90;;;;;;4160935;28;20325;-65
2022/02/26 01:23:57;;;;;;;24.53;11.63;;;2.10;99.90;;;;;;4172766;28;20331;-63
2022/02/26 01:25:58;;;;;;;23.57;10.83;;;2.10;99.90;;;;;;4177460;28;20778;-55
2022/02/26 01:27:59;;;;;;;21.23;10.00;;;2.10;99.90;;;;;;4174134;28;20363;-61
2022/02/26 01:30:00;;;;;;;19.07;10.00;;;2.10;99.90;;;;;;4163500;28;20270;-58
2022/02/26 01:32:04;;;;;;;21.67;10.47;;;2.10;99.90;;;;;;4159314;28;20282;-67
2022/02/26 01:34:06;;;;;;;19.97;10.03;;;2.20;99.90;;;;;;4160729;28;20660;-55
2022/02/26 01:36:07;;;;;;;22.23;9.60;;;2.20;99.90;;;;;;4160363;28;20337;-63
2022/02/26 01:38:09;;;;;;;21.77;9.53;;;2.20;99.90;;;;;;4159036;28;20344;-56
2022/02/26 01:40:10;;;;;;;22.43;10.10;;;2.20;99.90;;;;;;4159817;28;21074;-70
2022/02/26 01:42:11;;;;;;;17.10;9.43;;;2.20;99.90;;;;;;4160686;28;20282;-50
2022/02/26 01:44:13;;;;;;;24.03;10.47;;;2.30;99.90;;;;;;4157471;28;20263;-75
2022/02/26 01:46:14;;;;;;;24.23;11.93;;;2.30;99.90;;;;;;4161710;28;20349;-54
2022/02/26 01:48:15;;;;;;;20.40;9.97;;;2.30;99.90;;;;;;4159557;28;20333;-89
2022/02/26 01:50:22;;;;;;;20.93;10.77;;;2.30;99.90;;;;;;4161290;28;20321;-88
2022/02/26 01:52:25;;;;;;;22.97;11.13;;;2.20;99.90;;;;;;4161337;28;20274;-76
2022/02/26 01:56:32;;;;;;;23.63;11.03;;;2.20;99.90;;;;;;4141229;28;20339;-47
2022/02/26 01:58:33;;;;;;;22.93;10.93;;;2.20;99.90;;;;;;4141454;28;20272;-68
2022/02/26 02:00:35;;;;;;;24.30;12.03;;;2.10;99.90;;;;;;4142132;28;20271;-59
2022/02/26 02:02:36;;;;;;;26.73;12.37;;;2.20;99.90;;;;;;4141017;28;21137;-50
2022/02/26 02:04:37;;;;;;;25.97;11.50;;;2.10;99.90;;;;;;4143063;28;20322;-60
2022/02/26 02:06:39;;;;;;;27.27;12.80;;;2.10;99.90;;;;;;4316084;22;1211584;-81
2022/02/26 02:08:43;;;;;;;22.73;11.30;;;2.10;99.90;;;;;;4192104;28;20095;-62
2022/02/26 02:10:45;;;;;;;29.33;12.70;;;2.20;99.90;;;;;;4191555;28;20677;-57
2022/02/26 02:12:47;;;;;;;30.80;13.07;;;2.10;99.90;;;;;;4192261;28;20270;-47
2022/02/26 02:14:48;;;;;;;27.47;13.20;;;2.20;99.90;;;;;;4191250;28;20326;-61
2022/02/26 02:16:49;;;;;;;24.83;11.80;;;2.10;99.90;;;;;;4191572;28;20253;-47
2022/02/26 02:18:50;;;;;;;27.30;13.37;;;2.10;99.90;;;;;;4191223;28;20273;-56
2022/02/26 02:20:52;;;;;;;29.53;13.90;;;2.10;99.90;;;;;;4192971;28;20652;-49
2022/02/26 02:22:53;;;;;;;26.13;12.77;;;2.00;99.90;;;;;;4172313;28;20352;-62
2022/02/26 02:24:54;;;;;;;27.83;12.40;;;2.00;99.90;;;;;;4193194;28;20319;-55
2022/02/26 02:27:02;;;;;;;27.37;12.40;;;1.90;99.90;;;;;;4191769;28;20370;-83
2022/02/26 02:29:03;;;;;;;26.27;12.13;;;2.00;99.90;;;;;;4175018;28;20316;-59
2022/02/26 02:31:05;;;;;;;25.20;12.10;;;2.00;99.90;;;;;;4190398;28;20270;-48
2022/02/26 02:33:07;;;;;;;22.40;11.83;;;2.00;99.90;;;;;;4192927;28;20813;-49
2022/02/26 02:35:21;;;;;;;23.20;11.47;;;2.00;99.90;;;;;;4191389;28;20315;-64
2022/02/26 02:37:22;;;;;;;20.43;10.57;;;2.00;99.90;;;;;;4174565;28;20278;-62
2022/02/26 02:39:23;;;;;;;22.13;11.57;;;2.00;99.90;;;;;;4191567;28;20753;-49
2022/02/26 02:41:24;;;;;;;27.00;11.53;;;2.00;99.90;;;;;;4192748;28;20281;-53
2022/02/26 02:43:26;;;;;;;24.10;10.83;;;2.10;99.90;;;;;;4191457;28;20277;-58
2022/02/26 02:45:28;;;;;;;23.97;11.97;;;2.10;99.90;;;;;;4191774;28;20382;-54
2022/02/26 02:47:30;;;;;;;19.80;10.50;;;2.10;99.90;;;;;;4191984;28;20326;-59
2022/02/26 02:49:31;;;;;;;23.13;11.57;;;2.10;99.90;;;;;;4191061;28;20813;-64
2022/02/26 02:51:32;;;;;;;20.30;10.00;;;2.10;99.90;;;;;;4173784;28;20317;-58
2022/02/26 02:53:34;;;;;;;22.10;10.70;;;2.10;99.90;;;;;;4190512;28;20266;-63
2022/02/26 02:55:35;;;;;;;22.43;11.20;;;2.10;99.90;;;;;;4174255;28;20282;-70
2022/02/26 02:57:36;;;;;;;24.27;11.00;;;2.10;99.90;;;;;;4191189;28;20338;-56
2022/02/26 02:59:38;;;;;;;25.13;12.33;;;2.10;99.90;;;;;;4191744;28;20278;-62
2022/02/26 03:01:39;;;;;;;23.43;11.23;;;2.10;99.90;;;;;;4191246;28;20576;-92
2022/02/26 03:03:40;;;;;;;28.30;11.33;;;2.10;99.90;;;;;;4483757;22;21206;-56
2022/02/26 03:05:41;;;;;;;26.43;12.93;;;2.10;99.90;;;;;;4174374;28;20308;-63
2022/02/26 03:07:42;;;;;;;29.73;12.63;;;1.90;99.90;;;;;;4175214;28;20347;-50
2022/02/26 03:09:43;;;;;;;27.37;12.30;;;1.90;99.90;;;;;;4173683;28;20819;-61
2022/02/26 03:11:44;;;;;;;22.77;11.17;;;1.90;99.90;;;;;;4162547;28;20313;-54
2022/02/26 03:13:47;;;;;;;29.97;10.80;;;1.90;99.90;;;;;;4158610;28;20282;-56
2022/02/26 03:15:50;;;;;;;22.67;10.37;;;1.90;99.90;;;;;;4157888;28;20298;-58
2022/02/26 03:17:51;;;;;;;25.43;10.87;;;1.80;99.90;;;;;;4159674;28;21139;-72
2022/02/26 03:19:52;;;;;;;23.53;10.07;;;1.90;99.90;;;;;;4157511;28;20755;-61
2022/02/26 03:21:53;;;;;;;22.17;10.57;;;1.90;99.90;;;;;;4159212;28;20270;-58
2022/02/26 03:23:54;;;;;;;23.37;10.00;;;1.90;99.90;;;;;;4157838;28;20333;-49
2022/02/26 03:25:56;;;;;;;22.83;10.57;;;1.90;99.90;;;;;;4159687;28;20306;-69
2022/02/26 03:27:57;;;;;;;21.47;10.93;;;1.90;99.90;;;;;;4157238;28;20317;-68
2022/02/26 03:29:59;;;;;;;24.20;11.33;;;1.90;99.90;;;;;;4157177;28;20340;-62
2022/02/26 03:32:01;;;;;;;20.90;10.07;;;2.00;99.90;;;;;;4157359;28;20266;-67
2022/02/26 03:34:03;;;;;;;22.60;9.97;;;2.00;99.90;;;;;;4158729;28;20325;-51
2022/02/26 03:36:04;;;;;;;23.57;10.17;;;2.00;99.90;;;;;;4159566;28;20266;-53
2022/02/26 03:38:06;;;;;;;20.27;10.17;;;2.00;99.90;;;;;;4159982;28;20259;-52
2022/02/26 03:40:09;;;;;;;21.77;9.97;;;2.00;99.90;;;;;;4166872;28;20273;-54
2022/02/26 03:42:11;;;;;;;23.93;10.50;;;2.00;99.90;;;;;;4173833;28;20254;-64
2022/02/26 03:44:12;;;;;;;23.67;10.27;;;2.10;99.90;;;;;;4175848;28;20261;-51
2022/02/26 03:46:13;;;;;;;19.33;10.23;;;2.10;99.90;;;;;;4174755;28;20297;-69
2022/02/26 03:48:15;;;;;;;20.50;10.60;;;2.10;99.90;;;;;;4170260;28;20686;-51
2022/02/26 03:50:16;;;;;;;22.33;9.97;;;2.10;99.90;;;;;;4158298;28;20305;-55
2022/02/26 03:52:19;;;;;;;22.60;10.90;;;2.10;99.90;;;;;;4159294;28;20266;-50
2022/02/26 03:54:21;;;;;;;19.37;10.33;;;2.10;99.90;;;;;;4173266;28;20323;-48
2022/02/26 03:56:22;;;;;;;23.57;9.80;;;2.10;99.90;;;;;;4154943;28;20921;-58
2022/02/26 03:58:23;;;;;;;17.93;8.77;;;2.10;99.90;;;;;;4172900;28;20286;-72
2022/02/26 04:00:24;;;;;;;22.17;9.43;;;2.20;99.90;;;;;;4174775;28;20273;-59
2022/02/26 04:02:26;;;;;;;19.03;9.90;;;2.20;99.90;;;;;;4170235;28;20282;-45
2022/02/26 04:04:27;;;;;;;16.43;9.03;;;2.20;99.90;;;;;;4186846;28;20277;-58
2022/02/26 04:08:39;;;;;;;18.30;8.57;;;2.30;99.90;;;;;;4930202;22;20707;-42
2022/02/26 04:10:41;;;;;;;21.60;10.17;;;2.30;99.90;;;;;;4155776;28;20333;-51
2022/02/26 04:12:42;;;;;;;18.77;9.07;;;2.30;99.90;;;;;;4172135;28;20270;-49
2022/02/26 04:14:43;;;;;;;18.50;8.97;;;2.30;99.90;;;;;;4173884;28;20661;-53
2022/02/26 04:16:45;;;;;;;27.87;9.63;;;2.30;99.90;;;;;;4173078;28;20763;-53
2022/02/26 04:18:46;;;;;;;18.47;9.73;;;2.40;99.90;;;;;;4174385;28;20319;-57
2022/02/26 04:20:47;;;;;;;23.03;10.07;;;2.30;99.90;;;;;;4155905;28;20317;-61
2022/02/26 04:22:48;;;;;;;17.07;8.73;;;2.40;99.90;;;;;;4173988;28;20664;-57
2022/02/26 04:24:50;;;;;;;16.03;8.40;;;2.30;99.90;;;;;;4172960;28;20347;-48
2022/02/26 04:26:51;;;;;;;20.37;8.93;;;2.40;99.90;;;;;;4174216;28;20375;-52
2022/02/26 04:28:54;;;;;;;16.33;8.57;;;2.30;99.90;;;;;;4171951;28;20286;-49
2022/02/26 04:30:55;;;;;;;15.43;8.63;;;2.40;99.90;;;;;;4155426;28;20790;-54
2022/02/26 04:32:57;;;;;;;17.37;9.07;;;2.40;99.90;;;;;;4172322;28;20348;-44
2022/02/26 04:34:58;;;;;;;18.00;8.63;;;2.40;99.90;;;;;;4174139;28;20332;-43
2022/02/26 04:36:59;;;;;;;22.53;8.43;;;2.40;99.90;;;;;;4173116;28;20311;-47
2022/02/26 04:39:01;;;;;;;19.93;9.53;;;2.40;99.90;;;;;;4173805;28;20332;-56
2022/02/26 04:41:03;;;;;;;20.90;10.13;;;2.40;99.90;;;;;;4173460;28;20257;-48
2022/02/26 04:43:05;;;;;;;19.90;8.93;;;2.40;99.90;;;;;;4173374;28;20274;-56
2022/02/26 04:45:08;;;;;;;20.00;9.53;;;2.30;99.90;;;;;;4171845;28;20750;-49
2022/02/26 04:47:09;;;;;;;18.13;9.93;;;2.30;99.90;;;;;;4154769;28;20861;-93
2022/02/26 04:49:10;;;;;;;21.13;10.53;;;2.30;99.90;;;;;;4173783;28;20340;-62
2022/02/26 04:51:11;;;;;;;20.10;9.47;;;2.30;99.90;;;;;;4172207;28;20750;-70
2022/02/26 04:53:13;;;;;;;22.00;9.67;;;2.30;99.90;;;;;;4176005;28;20315;-51
2022/02/26 04:55:15;;;;;;;20.70;10.37;;;2.30;99.90;;;;;;4177464;28;20274;-64
2022/02/26 04:57:16;;;;;;;19.17;10.27;;;2.30;99.90;;;;;;4179194;28;20262;-66
2022/02/26 04:59:17;;;;;;;24.60;11.03;;;2.30;99.90;;;;;;4178016;28;20315;-82
2022/02/26 05:01:18;;;;;;;24.00;10.87;;;2.30;99.90;;;;;;4171515;28;20324;-63
2022/02/26 05:03:19;;;;;;;23.10;10.27;;;2.30;99.90;;;;;;4161442;28;20270;-87
2022/02/26 05:05:20;;;;;;;23.70;10.13;;;2.30;99.90;;;;;;4163150;28;20348;-49
2022/02/26 05:07:23;;;;;;;21.63;9.60;;;2.30;99.90;;;;;;4160961;28;20348;-79
2022/02/26 05:09:24;;;;;;;21.13;9.40;;;2.30;99.90;;;;;;4170143;28;20685;-62
2022/02/26 05:11:26;;;;;;;20.00;9.53;;;2.30;99.90;;;;;;4178784;28;20323;-74
2022/02/26 05:13:28;;;;;;;25.20;10.67;;;2.30;99.90;;;;;;4177175;28;20297;-50
2022/02/26 05:15:29;;;;;;;21.67;9.47;;;2.30;99.90;;;;;;4178001;28;20286;-67
2022/02/26 05:17:30;;;;;;;20.83;10.73;;;2.30;99.90;;;;;;4174982;28;20328;-59
2022/02/26 05:19:31;;;;;;;20.40;10.33;;;2.30;99.90;;;;;;4178049;28;20278;-50
2022/02/26 05:21:32;;;;;;;21.20;9.77;;;2.20;99.90;;;;;;4178362;28;20726;-46
2022/02/26 05:23:33;;;;;;;24.03;11.70;;;2.20;99.90;;;;;;4178496;28;20296;-74
2022/02/26 05:25:34;;;;;;;22.73;10.80;;;2.10;99.90;;;;;;4177468;28;20608;-69
2022/02/26 05:27:36;;;;;;;27.43;13.43;;;2.10;99.90;;;;;;4177649;28;20327;-60
2022/02/26 05:29:38;;;;;;;41.37;18.23;;;2.10;99.90;;;;;;4178177;28;20273;-71
2022/02/26 05:31:39;;;;;;;77.63;34.80;;;2.10;99.90;;;;;;4177894;28;20271;-60
2022/02/26 05:33:40;;;;;;;61.17;30.37;;;2.20;99.90;;;;;;4177954;28;20328;-55
2022/02/26 05:35:41;;;;;;;54.90;25.57;;;2.20;99.90;;;;;;4175840;28;20270;-56
2022/02/26 05:37:42;;;;;;;57.07;26.37;;;2.20;99.90;;;;;;4177523;28;20722;-51
2022/02/26 05:39:44;;;;;;;56.63;28.10;;;2.30;99.90;;;;;;4175717;28;20332;-60
2022/02/26 05:41:45;;;;;;;62.50;31.47;;;2.30;99.90;;;;;;4177881;28;20274;-66
2022/02/26 05:43:46;;;;;;;45.23;23.20;;;2.20;99.90;;;;;;4176917;28;20278;-62
2022/02/26 05:45:48;;;;;;;45.70;21.13;;;2.30;99.90;;;;;;4179109;28;20316;-57
2022/02/26 05:47:49;;;;;;;49.83;22.03;;;2.30;99.90;;;;;;4175620;28;20757;-68
2022/02/26 05:49:50;;;;;;;33.60;17.43;;;2.30;99.90;;;;;;4179044;28;20270;-78
2022/02/26 05:51:51;;;;;;;40.53;16.83;;;2.30;99.90;;;;;;4178858;28;20273;-63
2022/02/26 05:53:52;;;;;;;32.77;13.63;;;2.40;99.90;;;;;;4177695;28;20270;-74
2022/02/26 05:55:54;;;;;;;32.27;15.37;;;2.50;99.90;;;;;;4512945;22;20343;-62
2022/02/26 05:57:55;;;;;;;29.97;13.87;;;2.50;99.90;;;;;;4162396;28;20282;-68
2022/02/26 05:59:56;;;;;;;29.47;14.33;;;2.50;99.90;;;;;;4162264;28;20281;-68
2022/02/26 06:01:58;;;;;;;30.40;14.10;;;2.60;99.90;;;;;;4178510;28;20758;-72
2022/02/26 06:03:59;;;;;;;25.73;13.13;;;2.60;99.90;;;;;;4159360;28;20349;-71
2022/02/26 06:06:00;;;;;;;31.90;15.13;;;2.60;99.90;;;;;;4158461;28;20385;-49
2022/02/26 06:08:01;;;;;;;42.47;21.03;;;2.60;99.90;;;;;;4158320;28;20321;-62
2022/02/26 06:10:03;;;;;;;33.03;19.27;;;2.60;99.90;;;;;;4169482;28;20791;-46
2022/02/26 06:12:05;;;;;;;39.53;20.50;;;2.50;99.90;;;;;;4174253;28;20642;-53
2022/02/26 06:14:06;;;;;;;38.17;21.43;;;2.60;99.90;;;;;;4175528;28;20324;-63
2022/02/26 06:16:07;;;;;;;34.27;16.67;;;2.60;99.90;;;;;;4174627;28;20308;-64
2022/02/26 06:18:08;;;;;;;27.93;15.70;;;2.60;99.90;;;;;;4175544;28;20274;-50
2022/02/26 06:20:12;;;;;;;29.70;17.00;;;2.60;99.90;;;;;;4176136;28;20262;-82
2022/02/26 06:22:14;;;;;;;47.97;21.23;;;2.70;99.90;;;;;;4159216;28;20282;-57
2022/02/26 06:24:16;;;;;;;53.50;27.07;;;2.80;99.90;;;;;;4159523;28;20301;-63
2022/02/26 06:26:17;;;;;;;61.00;36.83;;;2.90;99.90;;;;;;4163346;28;20379;-91
2022/02/26 06:28:18;;;;;;;59.30;33.60;;;3.00;99.90;;;;;;4160170;28;20288;-69
2022/02/26 06:30:21;;;;;;;53.60;32.33;;;3.00;99.90;;;;;;4160168;28;20317;-67
2022/02/26 06:32:22;;;;;;;47.50;26.73;;;3.10;99.90;;;;;;4160807;28;20775;-72
2022/02/26 06:34:23;;;;;;;66.50;34.97;;;3.10;99.90;;;;;;4159829;28;20271;-66
2022/02/26 06:36:24;;;;;;;54.17;32.70;;;3.10;99.90;;;;;;4160110;28;20727;-49
2022/02/26 06:38:26;;;;;;;50.97;26.40;;;3.10;99.90;;;;;;4162706;28;20349;-65
2022/02/26 06:40:27;;;;;;;53.37;28.60;;;3.10;99.90;;;;;;4175728;28;20747;-81
2022/02/26 06:42:28;;;;;;;65.67;32.83;;;3.10;99.90;;;;;;4161328;28;20263;-54
2022/02/26 06:44:29;;;;;;;55.80;29.03;;;3.10;99.90;;;;;;4159797;28;20263;-48
2022/02/26 06:46:30;;;;;;;54.30;29.17;;;3.10;99.90;;;;;;4159322;28;20344;-58
2022/02/26 06:48:32;;;;;;;70.87;38.53;;;3.20;99.90;;;;;;4173884;28;20963;-46
2022/02/26 06:50:33;;;;;;;91.53;44.93;;;3.20;99.90;;;;;;4175700;28;20254;-76
2022/02/26 06:52:34;;;;;;;82.70;41.87;;;3.20;99.90;;;;;;4178772;28;20352;-65
2022/02/26 06:54:37;;;;;;;48.37;26.30;;;3.30;99.90;;;;;;4176322;28;20269;-56
2022/02/26 06:56:38;;;;;;;30.97;16.77;;;3.40;99.90;;;;;;4146838;28;20332;-49
2022/02/26 06:58:39;;;;;;;30.30;15.57;;;3.40;99.90;;;;;;4161291;28;20917;-50
2022/02/26 07:00:41;;;;;;;28.33;14.90;;;3.50;99.90;;;;;;4164871;28;20270;-56
2022/02/26 07:02:42;;;;;;;24.57;13.03;;;3.60;99.90;;;;;;4171435;28;20348;-53
2022/02/26 07:04:43;;;;;;;26.17;11.57;;;3.60;99.90;;;;;;4166510;28;20282;-64
2022/02/26 07:06:45;;;;;;;26.07;12.23;;;3.60;99.90;;;;;;4176029;28;20298;-46
2022/02/26 07:08:46;;;;;;;21.00;11.20;;;3.60;99.90;;;;;;4167223;28;20269;-56
2022/02/26 07:10:47;;;;;;;23.47;11.40;;;3.70;99.90;;;;;;4176663;28;20274;-59
2022/02/26 07:12:49;;;;;;;43.70;19.47;;;3.70;99.90;;;;;;4170200;28;20321;-59
2022/02/26 07:14:50;;;;;;;29.73;12.93;;;3.70;99.90;;;;;;4159590;28;20270;-55
2022/02/26 07:16:51;;;;;;;25.37;11.27;;;3.80;99.90;;;;;;4163901;28;20324;-68
2022/02/26 07:18:52;;;;;;;24.00;11.00;;;3.80;99.90;;;;;;4175258;28;20319;-63
2022/02/26 07:20:53;;;;;;;25.77;12.20;;;3.80;99.90;;;;;;4164248;28;20340;-64
2022/02/26 07:22:54;;;;;;;23.23;9.33;;;3.90;99.90;;;;;;4159953;28;20955;-66
2022/02/26 07:24:56;;;;;;;20.20;9.33;;;3.90;99.90;;;;;;4160886;28;20682;-49
2022/02/26 07:26:57;;;;;;;26.00;11.10;;;3.90;99.90;;;;;;4164534;28;20286;-68
2022/02/26 07:28:58;;;;;;;17.77;9.60;;;3.90;99.90;;;;;;4176835;28;20340;-59
2022/02/26 07:31:00;;;;;;;27.17;12.10;;;3.80;99.90;;;;;;4175493;28;20344;-68
2022/02/26 07:33:01;;;;;;;31.33;13.63;;;3.70;99.90;;;;;;4176631;28;20266;-60
2022/02/26 07:35:04;;;;;;;26.63;12.73;;;3.70;99.90;;;;;;4167220;28;20343;-62
2022/02/26 07:37:05;;;;;;;31.53;14.63;;;3.60;99.90;;;;;;4177985;28;20316;-65
2022/02/26 07:39:07;;;;;;;33.17;15.00;;;3.60;99.90;;;;;;4176276;28;20315;-68
2022/02/26 07:41:08;;;;;;;37.60;16.47;;;3.50;99.90;;;;;;4175742;28;20270;-55
2022/02/26 07:43:10;;;;;;;34.73;16.30;;;3.50;99.90;;;;;;4166266;28;20255;-61
2022/02/26 07:45:12;;;;;;;35.20;15.60;;;3.50;99.90;;;;;;4160157;28;20356;-62
2022/02/26 07:47:13;;;;;;;32.73;16.70;;;3.50;99.90;;;;;;4159361;28;20306;-75
2022/02/26 07:49:14;;;;;;;38.27;16.70;;;3.50;99.90;;;;;;4159043;28;20258;-56
2022/02/26 07:51:15;;;;;;;35.20;17.37;;;3.40;99.90;;;;;;4159210;28;20267;-57
2022/02/26 07:53:17;;;;;;;44.97;18.03;;;3.40;99.90;;;;;;4172335;28;20278;-79
2022/02/26 07:55:18;;;;;;;45.30;17.57;;;3.40;99.90;;;;;;4178017;28;20258;-71
2022/02/26 07:57:19;;;;;;;35.27;17.67;;;3.40;99.90;;;;;;4174602;28;20282;-73
2022/02/26 07:59:20;;;;;;;39.33;17.57;;;3.40;99.90;;;;;;4175586;28;20270;-74
2022/02/26 08:01:22;;;;;;;36.40;17.13;;;3.40;99.90;;;;;;4175117;28;21116;-45
2022/02/26 08:03:23;;;;;;;36.07;16.43;;;3.40;99.90;;;;;;4174667;28;20266;-68
2022/02/26 08:05:24;;;;;;;38.43;17.60;;;3.50;99.90;;;;;;4174752;28;20266;-57
2022/02/26 08:07:25;;;;;;;36.57;17.30;;;3.50;99.90;;;;;;4173880;28;20339;-55
2022/02/26 08:09:30;;;;;;;36.80;16.87;;;3.60;99.90;;;;;;4167910;28;20344;-62
2022/02/26 08:11:31;;;;;;;36.93;17.23;;;3.60;99.90;;;;;;4156424;28;20652;-65
2022/02/26 08:13:32;;;;;;;39.43;18.30;;;3.60;99.90;;;;;;4159199;28;20316;-79
2022/02/26 08:15:33;;;;;;;51.87;19.53;;;3.70;99.90;;;;;;4159281;28;20255;-79
2022/02/26 08:17:34;;;;;;;54.17;24.73;;;3.70;99.90;;;;;;4161004;28;20312;-67
2022/02/26 08:19:36;;;;;;;41.27;19.07;;;3.80;99.90;;;;;;4162985;28;20285;-59
2022/02/26 08:21:37;;;;;;;45.10;17.20;;;3.80;99.90;;;;;;4165786;28;20654;-64
2022/02/26 08:23:38;;;;;;;36.50;16.30;;;3.80;99.90;;;;;;4162957;28;20369;-55
2022/02/26 08:25:39;;;;;;;45.83;18.70;;;3.80;99.90;;;;;;4160483;28;20781;-64
2022/02/26 08:27:41;;;;;;;42.00;17.10;;;3.90;99.90;;;;;;4173053;28;20297;-57
2022/02/26 08:29:42;;;;;;;34.57;14.73;;;3.90;99.90;;;;;;4178657;28;20347;-58
2022/02/26 08:31:43;;;;;;;30.40;13.43;;;4.10;99.90;;;;;;4172225;28;20266;-53
2022/02/26 08:33:46;;;;;;;36.30;13.73;;;4.20;99.90;;;;;;4164239;28;20271;-73
2022/02/26 08:35:47;;;;;;;28.50;12.77;;;4.30;99.90;;;;;;4146382;28;20835;-67
2022/02/26 08:37:49;;;;;;;28.13;12.37;;;4.40;99.90;;;;;;4150807;28;20275;-53
2022/02/26 08:39:50;;;;;;;31.13;14.53;;;4.40;99.90;;;;;;4159227;28;20282;-82
2022/02/26 08:41:52;;;;;;;26.83;13.27;;;4.50;99.90;;;;;;4159753;28;20342;-69
2022/02/26 08:43:53;;;;;;;25.00;13.17;;;4.50;99.90;;;;;;4162429;28;20285;-61
2022/02/26 08:45:55;;;;;;;29.13;12.20;;;4.60;99.90;;;;;;4159250;28;21380;-59
2022/02/26 08:47:56;;;;;;;28.13;13.87;;;4.70;99.90;;;;;;4158103;28;20353;-48
2022/02/26 08:49:58;;;;;;;30.80;13.67;;;4.70;99.90;;;;;;4153272;28;20336;-70
2022/02/26 08:52:00;;;;;;;25.70;14.40;;;4.90;99.90;;;;;;4140771;28;20341;-64
2022/02/26 08:54:01;;;;;;;26.33;12.67;;;5.00;99.90;;;;;;4141641;28;20357;-60
2022/02/26 08:56:03;;;;;;;31.37;13.23;;;5.10;99.90;;;;;;4159033;28;20278;-55
2022/02/26 08:58:04;;;;;;;26.63;13.07;;;5.20;99.90;;;;;;4174340;28;20319;-49
2022/02/26 09:00:07;;;;;;;26.93;13.87;;;5.40;99.90;;;;;;4173344;28;20653;-47
2022/02/26 09:02:09;;;;;;;24.50;11.33;;;5.60;99.90;;;;;;4160515;28;20695;-70
2022/02/26 09:04:10;;;;;;;27.90;13.17;;;5.80;99.90;;;;;;4159260;28;20321;-61
2022/02/26 09:06:11;;;;;;;29.37;13.30;;;6.00;99.90;;;;;;4158114;28;20308;-64
2022/02/26 09:08:12;;;;;;;30.83;12.73;;;6.20;99.90;;;;;;4156641;28;20317;-66
2022/02/26 09:10:14;;;;;;;22.87;11.97;;;6.40;99.90;;;;;;4155406;28;20278;-62
2022/02/26 09:12:15;;;;;;;25.13;12.23;;;6.50;99.90;;;;;;4155580;28;20317;-55
2022/02/26 09:14:16;;;;;;;29.57;12.83;;;6.50;99.90;;;;;;4154877;28;20890;-52
2022/02/26 09:16:17;;;;;;;43.80;15.20;;;6.50;99.90;;;;;;4156423;28;20092;-56
2022/02/26 09:18:19;;;;;;;30.20;13.47;;;6.50;99.90;;;;;;4159459;28;20101;-68
2022/02/26 09:20:20;;;;;;;34.60;14.10;;;6.50;99.90;;;;;;4164745;28;20351;-65
2022/02/26 09:22:21;;;;;;;28.97;13.67;;;6.30;99.90;;;;;;4171801;28;20075;-60
2022/02/26 09:24:22;;;;;;;25.73;13.33;;;6.10;99.90;;;;;;4154723;28;20033;-50
2022/02/26 09:26:24;;;;;;;25.67;12.73;;;6.00;99.90;;;;;;4172008;28;20087;-51
2022/02/26 09:28:25;;;;;;;22.90;11.33;;;6.00;99.90;;;;;;4167095;28;20045;-67
2022/02/26 09:30:26;;;;;;;22.43;11.17;;;5.80;99.90;;;;;;4154304;28;20114;-57
2022/02/26 09:32:31;;;;;;;24.53;11.87;;;5.80;99.90;;;;;;4159159;28;20037;-51
2022/02/26 09:34:32;;;;;;;19.60;11.37;;;5.80;99.90;;;;;;4156058;28;20282;-68
2022/02/26 09:36:33;;;;;;;20.77;10.87;;;6.00;99.90;;;;;;4155882;28;20104;-86
2022/02/26 09:38:37;;;;;;;23.23;11.80;;;6.00;99.90;;;;;;4532908;22;20061;-59
2022/02/26 09:40:38;;;;;;;26.90;12.13;;;6.10;99.90;;;;;;4175245;28;20677;-44
2022/02/26 09:42:39;;;;;;;27.27;11.83;;;6.20;99.90;;;;;;4174319;28;20037;-46
2022/02/26 09:44:40;;;;;;;22.20;11.50;;;6.20;99.90;;;;;;4175585;28;20261;-49
2022/02/26 09:46:42;;;;;;;19.53;10.30;;;6.10;99.90;;;;;;4156356;28;20283;-63
2022/02/26 09:48:43;;;;;;;23.07;11.10;;;6.00;99.90;;;;;;4175526;28;20481;-48
2022/02/26 09:50:45;;;;;;;26.73;11.57;;;6.10;99.90;;;;;;4174884;28;20266;-56
2022/02/26 09:52:49;;;;;;;20.13;11.43;;;6.10;99.90;;;;;;4175908;28;20274;-61
2022/02/26 09:54:51;;;;;;;21.40;10.70;;;6.30;99.90;;;;;;4174420;28;20742;-62
2022/02/26 09:56:52;;;;;;;20.83;9.77;;;6.40;99.90;;;;;;4175976;28;20094;-55
2022/02/26 09:58:54;;;;;;;18.43;9.53;;;6.40;99.90;;;;;;4174629;28;20045;-61
2022/02/26 10:00:55;;;;;;;18.17;9.27;;;6.50;99.90;;;;;;4175775;28;20333;-62
2022/02/26 10:02:56;;;;;;;19.63;10.00;;;6.60;99.90;;;;;;4174219;28;20021;-53
2022/02/26 10:05:00;;;;;;;28.40;10.70;;;6.80;99.90;;;;;;4175401;28;20064;-61
2022/02/26 10:07:12;;;;;;;20.50;10.13;;;7.00;99.90;;;;;;4155937;28;20382;-63
2022/02/26 10:09:15;;;;;;;20.53;10.80;;;7.00;99.90;;;;;;4175480;28;20036;-52
2022/02/26 10:11:28;;;;;;;18.63;9.87;;;7.00;99.90;;;;;;4174306;28;20063;-62
2022/02/26 10:13:37;;;;;;;17.93;9.40;;;6.90;99.90;;;;;;4175486;28;20155;-51
2022/02/26 10:15:40;;;;;;;16.80;9.43;;;6.50;99.90;;;;;;4174080;28;20025;-44
2022/02/26 10:17:41;;;;;;;18.17;9.47;;;6.20;99.90;;;;;;4174578;28;20641;-54
2022/02/26 10:19:42;;;;;;;21.67;9.70;;;6.10;99.90;;;;;;4174332;28;20017;-64
2022/02/26 10:21:43;;;;;;;22.43;9.57;;;6.10;99.90;;;;;;4175346;28;20029;-50
2022/02/26 10:23:44;;;;;;;31.37;9.97;;;6.10;99.90;;;;;;4156257;28;20300;-56
2022/02/26 10:25:46;;;;;;;23.33;11.03;;;6.20;99.90;;;;;;4174461;28;20029;-57
2022/02/26 10:27:52;;;;;;;27.40;12.47;;;6.10;99.90;;;;;;4174917;28;20083;-52
2022/02/26 10:29:53;;;;;;;24.53;12.20;;;6.00;99.90;;;;;;4174073;28;20025;-65
2022/02/26 10:31:56;;;;;;;24.23;11.53;;;6.00;99.90;;;;;;4175130;28;20266;-54